Waco, Ohio
Current Conditions -  °F | °C
As of 9:51 AM on Monday 22 Dec 2014 (Local Time) from KCAK Reporting Station
Haze Haze  
Wind Chill: 24°   Ceiling: Unl
Heat Index: 31°   Visibility: 5mi
Dew Point: 24°   Wind: 7mph
Humidity: 76%   Direction: 130°SE
Pressure: 30.08"   Gusts: NA
Location:  40.7612°N, 81.35°W
Report Text: KCAK 221451Z 13006KT 5SM HZ FEW055 SCT250 M01/M04 A3008 RMK AO2 SLP201 T10061044 58002
Loading
Personal Weather Stations






























Interactive Weather Map New forecast layout! Learn more

10-Day Weather Forecast

Advertisements
Track Severe Weather on mobile